Weather at Naples International Airport

Public forecast

Using degrees Celsius for public forecast. Weather courtesy of forecast.io.

Current aviation weather report (METAR) for Naples International Airport

Retrieved 2022/06/30 12:20 UTC (38 minutes ago):

LIRN 301220Z 24008KT 200V270 CAVOK 30/22 Q1013 NOSIG

Aviation forecast (TAF) for Naples International Airport

Retrieved 2022/06/30 12:22 UTC (36 minutes ago):

TAF LIRN 301100Z 3012/0112 24010KT CAVOK BECMG 3018/3020 VRB04KT BECMG 0109/0111 24010KT